Skip Navigation Links
NOAA logo - Click to go to the NOAA homepage
NOAA's National Weather Service
Alaska Aviation Weather Unit
  NWS logo - Click to go to the NWS homepage
Left Navbar Graphic     00 AKDT = 08 GMT

   
NOAA is celebrating 200 years of science, service, and stewardship. Visit the NOAA 200th celebration Web site to learn more.
USA.gov is the U.S. Government's official Web portal to all Federal, state and local government Web resources and services.
Facebook
NWS on Facebook

Important Change Regarding the AAWU Web Presence

 

Over the last several months, the AAWU has been working to navigate its webpages to a nationally supported server. Security, as well as other needs, have necessitated the change.  We have been given an extension for the site changeover while we diligently work at addressing feedback received. As of July 14, 2017, aawu.arh.noaa.gov will be discontinued. The new AAWU web address is weather.gov/aawu. It is now live and will run in-parallel with the old site until it is discontinued on July 14, 2017. Please continue to send any feedback or questions regarding the new webpages to nws.ar.aawu.webauthors@noaa.gov.  Thank you for your patience during this time of transition.
AAWU Home :: Display TAF Add Bookmark
TAF PAKW 240526Z 2406/2506  16007KT 3SM RA BR OVC015 WS020/21035KT
     FM240700 20006KT 2SM RA BR OVC010 WS020/21040KT
     FM241000 21009KT 3SM -SHRA BR BKN005 OVC015
     FM241600 21006KT 5SM -SHRA BR OVC015
     FM241800 22005KT P6SM VCSH OVC025
      AMD LTD TO CLD VIS AND WIND=

2596
FTAK31 PAJN 240526
TAFAGS
TAF

SPECI PAKW 240211Z AUTO 00000KT 2 1/2SM RA BR FEW029 OVC033 14/13 A2977 RMK AO2 P0005 T01440128 TSNO= SPECI PAKW 240220Z AUTO VRB04KT 3SM RA BR OVC029 14/13 A2978 RMK AO2 P0008 T01390128 TSNO= SPECI PAKW 240239Z AUTO 14005KT 2 1/2SM RA BR OVC027 14/13 A2978 RMK AO2 P0015 T01390128 TSNO= METAR PAKW 240253Z AUTO 15004KT 3SM RA BR OVC029 14/13 A2978 RMK AO2 SLP082 P0020 60041 T01390128 56017 TSNO= SPECI PAKW 240304Z AUTO 15006KT 3SM RA BR OVC031 14/13 A2977 RMK AO2 P0003 T01390128 TSNO= SPECI PAKW 240329Z AUTO 16005KT 3SM RA BR OVC028 14/13 A2977 RMK AO2 P0008 T01440128 TSNO= METAR PAKW 240353Z AUTO 15007KT 120V180 4SM RA BR OVC024 14/13 A2976 RMK SLP078 P0013 T01440128 TSNO VIA AUTODIAL= METAR PAKW 240453Z AUTO 18007KT 3SM -RA BR FEW013 OVC018 14/13 A2977 RMK AO2 SLP079 P0010 T01390128 TSNO= SPECI PAKW 240517Z AUTO 19008KT 6SM -RA BR OVC014 14/13 A2977 RMK AO2 P0002 T01390128 TSNO= SPECI PAKW 240535Z AUTO 19009KT 2 1/2SM -RA BR OVC013 14/13 A2977 RMK AO2 P0005 T01390128 TSNO= SPECI PAKW 240544Z AUTO 19009KT 4SM -RA BR OVC011 14/13 A2977 RMK AO2 P0006 T01390128 TSNO= METAR PAKW 240553Z AUTO 19012KT 6SM -RA BR OVC009 14/13 A2978 RMK AO2 SLP083 P0006 60070 T01390128 10144 20139 53001 TSNO= METAR PAKW 240653Z AUTO 20012G19KT 10SM OVC009 14/13 A2979 RMK AO2 RAE0557 CIG 007V011 SLP088 P0000 T01390128 TSNO= SPECI PAKW 240749Z AUTO 19008KT 10SM OVC010 14/12 A2981 RMK AO2 CIG 007V013 TSNO= METAR PAKW 240753Z AUTO 19011KT 10SM OVC010 14/12 A2981 RMK AO2 CIG 007V014 SLP093 T01390122 TSNO= SPECI PAKW 240807Z AUTO 20010KT 10SM OVC012 14/12 A2981 RMK AO2 T01390122 TSNO=
 Alaska TAF Map

NOAA's National Weather Service
Alaska Aviation Weather Unit
6930 Sand Lake Road
Anchorage, AK 99502-1845
Disclaimer
Credits
Glossary
Privacy Policy
About Us
Career Opportunities
Contact AAWU Internet Services Site last modified: April, 17th 2012